sensor_id;sensor_type;location;lat;lon;timestamp;pressure;altitude;pressure_sealevel;temperature;humidity
7200;BME280;3641;49.082;8.200;2024-02-15T00:01:10;100835.84;;;9.54;100.00
7200;BME280;3641;49.082;8.200;2024-02-15T00:03:37;100833.47;;;9.59;100.00
7200;BME280;3641;49.082;8.200;2024-02-15T00:06:03;100829.50;;;9.45;100.00
7200;BME280;3641;49.082;8.200;2024-02-15T00:08:31;100832.06;;;9.47;100.00
7200;BME280;3641;49.082;8.200;2024-02-15T00:11:00;100830.00;;;9.49;100.00
7200;BME280;3641;49.082;8.200;2024-02-15T00:13:26;100820.50;;;9.53;100.00
7200;BME280;3641;49.082;8.200;2024-02-15T00:15:53;100824.22;;;9.52;100.00
7200;BME280;3641;49.082;8.200;2024-02-15T00:18:18;100821.16;;;9.55;100.00
7200;BME280;3641;49.082;8.200;2024-02-15T00:20:45;100824.59;;;9.57;100.00
7200;BME280;3641;49.082;8.200;2024-02-15T00:23:11;100832.63;;;9.59;100.00
7200;BME280;3641;49.082;8.200;2024-02-15T00:25:39;100817.28;;;9.58;100.00
7200;BME280;3641;49.082;8.200;2024-02-15T00:28:10;100824.22;;;9.52;100.00
7200;BME280;3641;49.082;8.200;2024-02-15T00:30:36;100823.56;;;9.50;100.00
7200;BME280;3641;49.082;8.200;2024-02-15T00:33:03;100826.94;;;9.52;100.00
7200;BME280;3641;49.082;8.200;2024-02-15T00:35:30;100828.31;;;9.48;100.00
7200;BME280;3641;49.082;8.200;2024-02-15T00:37:57;100824.59;;;9.57;100.00
7200;BME280;3641;49.082;8.200;2024-02-15T00:40:23;100819.09;;;9.41;100.00
7200;BME280;3641;49.082;8.200;2024-02-15T00:42:51;100819.25;;;9.39;100.00
7200;BME280;3641;49.082;8.200;2024-02-15T00:45:18;100825.28;;;9.51;100.00
7200;BME280;3641;49.082;8.200;2024-02-15T00:47:44;100817.41;;;9.40;100.00
7200;BME280;3641;49.082;8.200;2024-02-15T00:50:10;100821.00;;;9.57;100.00
7200;BME280;3641;49.082;8.200;2024-02-15T00:52:37;100817.09;;;9.59;100.00
7200;BME280;3641;49.082;8.200;2024-02-15T00:55:04;100816.78;;;9.62;100.00
7200;BME280;3641;49.082;8.200;2024-02-15T00:57:30;100816.03;;;9.36;100.00
7200;BME280;3641;49.082;8.200;2024-02-15T00:59:58;100816.03;;;9.36;100.00
7200;BME280;3641;49.082;8.200;2024-02-15T01:02:27;100817.06;;;9.43;100.00
7200;BME280;3641;49.082;8.200;2024-02-15T01:04:54;100815.03;;;9.45;100.00
7200;BME280;3641;49.082;8.200;2024-02-15T01:07:23;100814.34;;;9.43;100.00
7200;BME280;3641;49.082;8.200;2024-02-15T01:09:51;100817.94;;;9.60;100.00
7200;BME280;3641;49.082;8.200;2024-02-15T01:12:18;100822.84;;;9.40;100.00
7200;BME280;3641;49.082;8.200;2024-02-15T01:14:45;100818.94;;;9.42;100.00
7200;BME280;3641;49.082;8.200;2024-02-15T01:17:14;100817.63;;;9.63;100.00
7200;BME280;3641;49.082;8.200;2024-02-15T01:19:40;100822.88;;;9.56;100.00
7200;BME280;3641;49.082;8.200;2024-02-15T01:22:07;100827.16;;;9.59;100.00
7200;BME280;3641;49.082;8.200;2024-02-15T01:24:33;100821.88;;;9.57;100.00
7200;BME280;3641;49.082;8.200;2024-02-15T01:26:59;100827.84;;;9.61;100.00
7200;BME280;3641;49.082;8.200;2024-02-15T01:29:26;100821.56;;;9.69;100.00
7200;BME280;3641;49.082;8.200;2024-02-15T01:31:53;100821.56;;;9.77;100.00
7200;BME280;3641;49.082;8.200;2024-02-15T01:34:20;100825.13;;;9.77;100.00
7200;BME280;3641;49.082;8.200;2024-02-15T01:36:48;100816.94;;;9.61;100.00
7200;BME280;3641;49.082;8.200;2024-02-15T01:39:15;100812.88;;;9.73;100.00
7200;BME280;3641;49.082;8.200;2024-02-15T01:41:46;100819.84;;;9.76;100.00
7200;BME280;3641;49.082;8.200;2024-02-15T01:44:13;100819.69;;;9.77;100.00
7200;BME280;3641;49.082;8.200;2024-02-15T01:46:40;100818.28;;;9.57;100.00
7200;BME280;3641;49.082;8.200;2024-02-15T01:49:06;100815.56;;;9.57;100.00
7200;BME280;3641;49.082;8.200;2024-02-15T01:51:35;100824.94;;;9.62;100.00
7200;BME280;3641;49.082;8.200;2024-02-15T01:54:02;100814.03;;;9.54;100.00
7200;BME280;3641;49.082;8.200;2024-02-15T01:56:29;100819.16;;;9.57;100.00
7200;BME280;3641;49.082;8.200;2024-02-15T01:58:56;100820.84;;;9.58;100.00
7200;BME280;3641;49.082;8.200;2024-02-15T02:01:23;100812.97;;;9.47;100.00
7200;BME280;3641;49.082;8.200;2024-02-15T02:03:49;100817.56;;;9.38;100.00
7200;BME280;3641;49.082;8.200;2024-02-15T02:06:16;100805.66;;;9.48;100.00
7200;BME280;3641;49.082;8.200;2024-02-15T02:08:44;100803.28;;;9.44;100.00
7200;BME280;3641;49.082;8.200;2024-02-15T02:11:10;100799.34;;;9.47;100.00
7200;BME280;3641;49.082;8.200;2024-02-15T02:13:37;100797.84;;;9.53;100.00
7200;BME280;3641;49.082;8.200;2024-02-15T02:16:04;100800.75;;;9.59;100.00
7200;BME280;3641;49.082;8.200;2024-02-15T02:18:31;100787.44;;;9.48;100.00
7200;BME280;3641;49.082;8.200;2024-02-15T02:20:58;100789.66;;;9.44;100.00
7200;BME280;3641;49.082;8.200;2024-02-15T02:23:26;100783.16;;;9.45;100.00
7200;BME280;3641;49.082;8.200;2024-02-15T02:25:58;100785.56;;;9.40;100.00
7200;BME280;3641;49.082;8.200;2024-02-15T02:28:25;100775.00;;;9.37;100.00
7200;BME280;3641;49.082;8.200;2024-02-15T02:30:51;100785.41;;;9.50;100.00
7200;BME280;3641;49.082;8.200;2024-02-15T02:33:18;100783.00;;;9.55;100.00
7200;BME280;3641;49.082;8.200;2024-02-15T02:35:47;100781.69;;;9.68;100.00
7200;BME280;3641;49.082;8.200;2024-02-15T02:38:14;100784.38;;;9.51;100.00
7200;BME280;3641;49.082;8.200;2024-02-15T02:40:41;100784.22;;;9.61;100.00
7200;BME280;3641;49.082;8.200;2024-02-15T02:43:09;100779.09;;;9.41;100.00
7200;BME280;3641;49.082;8.200;2024-02-15T02:45:35;100777.56;;;9.47;100.00
7200;BME280;3641;49.082;8.200;2024-02-15T02:48:02;100776.72;;;9.47;100.00
7200;BME280;3641;49.082;8.200;2024-02-15T02:50:29;100776.69;;;9.38;100.00
7200;BME280;3641;49.082;8.200;2024-02-15T02:52:55;100768.38;;;9.48;100.00
7200;BME280;3641;49.082;8.200;2024-02-15T02:55:22;100771.75;;;9.42;100.00
7200;BME280;3641;49.082;8.200;2024-02-15T02:57:49;100776.72;;;9.47;100.00
7200;BME280;3641;49.082;8.200;2024-02-15T03:00:17;100796.78;;;9.45;100.00
7200;BME280;3641;49.082;8.200;2024-02-15T03:02:45;100779.44;;;9.47;100.00
7200;BME280;3641;49.082;8.200;2024-02-15T03:05:12;100791.84;;;9.41;100.00
7200;BME280;3641;49.082;8.200;2024-02-15T03:07:40;100793.91;;;9.39;100.00
7200;BME280;3641;49.082;8.200;2024-02-15T03:10:08;100798.34;;;9.40;100.00
7200;BME280;3641;49.082;8.200;2024-02-15T03:12:35;100797.13;;;9.42;100.00
7200;BME280;3641;49.082;8.200;2024-02-15T03:15:02;100803.41;;;9.35;100.00
7200;BME280;3641;49.082;8.200;2024-02-15T03:17:30;100799.19;;;9.40;100.00
7200;BME280;3641;49.082;8.200;2024-02-15T03:19:56;100809.09;;;9.58;100.00
7200;BME280;3641;49.082;8.200;2024-02-15T03:22:23;100801.44;;;9.61;100.00
7200;BME280;3641;49.082;8.200;2024-02-15T03:24:51;100804.31;;;9.68;100.00
7200;BME280;3641;49.082;8.200;2024-02-15T03:27:18;100802.63;;;9.59;100.00
7200;BME280;3641;49.082;8.200;2024-02-15T03:29:48;100795.28;;;9.43;100.00
7200;BME280;3641;49.082;8.200;2024-02-15T03:32:15;100793.38;;;9.35;100.00
7200;BME280;3641;49.082;8.200;2024-02-15T03:34:43;100790.50;;;9.45;100.00
7200;BME280;3641;49.082;8.200;2024-02-15T03:37:10;100794.06;;;9.37;100.00
7200;BME280;3641;49.082;8.200;2024-02-15T03:39:37;100785.53;;;9.32;100.00
7200;BME280;3641;49.082;8.200;2024-02-15T03:42:03;100785.72;;;9.39;100.00
7200;BME280;3641;49.082;8.200;2024-02-15T03:44:31;100786.22;;;9.42;100.00
7200;BME280;3641;49.082;8.200;2024-02-15T03:46:57;100782.19;;;9.63;100.00
7200;BME280;3641;49.082;8.200;2024-02-15T03:49:24;100793.41;;;9.43;100.00
7200;BME280;3641;49.082;8.200;2024-02-15T03:51:51;100787.78;;;9.45;100.00
7200;BME280;3641;49.082;8.200;2024-02-15T03:54:20;100784.81;;;9.30;100.00
7200;BME280;3641;49.082;8.200;2024-02-15T03:56:49;100791.16;;;9.31;100.00
7200;BME280;3641;49.082;8.200;2024-02-15T03:59:18;100785.72;;;9.47;100.00
7200;BME280;3641;49.082;8.200;2024-02-15T04:01:46;100791.84;;;9.33;100.00
7200;BME280;3641;49.082;8.200;2024-02-15T04:04:13;100794.56;;;9.41;100.00
7200;BME280;3641;49.082;8.200;2024-02-15T04:06:40;100788.28;;;9.57;100.00
7200;BME280;3641;49.082;8.200;2024-02-15T04:09:09;100784.72;;;9.48;100.00
7200;BME280;3641;49.082;8.200;2024-02-15T04:11:35;100781.94;;;9.32;100.00
7200;BME280;3641;49.082;8.200;2024-02-15T04:14:02;100780.94;;;9.41;100.00
7200;BME280;3641;49.082;8.200;2024-02-15T04:16:29;100787.13;;;9.51;100.00
7200;BME280;3641;49.082;8.200;2024-02-15T04:18:56;100783.00;;;9.39;100.00
7200;BME280;3641;49.082;8.200;2024-02-15T04:21:23;100778.94;;;9.51;100.00
7200;BME280;3641;49.082;8.200;2024-02-15T04:23:49;100784.88;;;9.47;100.00
7200;BME280;3641;49.082;8.200;2024-02-15T04:26:18;100777.53;;;9.31;100.00
7200;BME280;3641;49.082;8.200;2024-02-15T04:28:45;100779.44;;;9.47;100.00
7200;BME280;3641;49.082;8.200;2024-02-15T04:31:13;100776.00;;;9.36;100.00
7200;BME280;3641;49.082;8.200;2024-02-15T04:33:40;100778.56;;;9.46;100.00
7200;BME280;3641;49.082;8.200;2024-02-15T04:36:07;100788.28;;;9.40;100.00
7200;BME280;3641;49.082;8.200;2024-02-15T04:38:34;100782.31;;;9.29;100.00
7200;BME280;3641;49.082;8.200;2024-02-15T04:41:00;100787.56;;;9.30;100.00
7200;BME280;3641;49.082;8.200;2024-02-15T04:43:30;100781.25;;;9.30;100.00
7200;BME280;3641;49.082;8.200;2024-02-15T04:45:57;100777.38;;;9.32;100.00
7200;BME280;3641;49.082;8.200;2024-02-15T04:48:25;100780.25;;;9.31;100.00
7200;BME280;3641;49.082;8.200;2024-02-15T04:50:52;100778.38;;;9.31;100.00
7200;BME280;3641;49.082;8.200;2024-02-15T04:53:20;100781.09;;;9.31;100.00
7200;BME280;3641;49.082;8.200;2024-02-15T04:55:46;100776.16;;;9.35;100.00
7200;BME280;3641;49.082;8.200;2024-02-15T04:58:12;100765.16;;;9.53;100.00
7200;BME280;3641;49.082;8.200;2024-02-15T05:00:40;100764.09;;;9.45;100.00
7200;BME280;3641;49.082;8.200;2024-02-15T05:03:07;100762.69;;;9.33;100.00
7200;BME280;3641;49.082;8.200;2024-02-15T05:05:33;100758.63;;;9.37;100.00
7200;BME280;3641;49.082;8.200;2024-02-15T05:08:00;100755.59;;;9.49;100.00
7200;BME280;3641;49.082;8.200;2024-02-15T05:10:27;100759.16;;;9.41;100.00
7200;BME280;3641;49.082;8.200;2024-02-15T05:12:53;100754.19;;;9.28;100.00
7200;BME280;3641;49.082;8.200;2024-02-15T05:15:20;100760.31;;;9.30;100.00
7200;BME280;3641;49.082;8.200;2024-02-15T05:17:51;100769.03;;;9.34;100.00
7200;BME280;3641;49.082;8.200;2024-02-15T05:20:20;100759.66;;;9.36;100.00
7200;BME280;3641;49.082;8.200;2024-02-15T05:22:46;100761.69;;;9.34;100.00
7200;BME280;3641;49.082;8.200;2024-02-15T05:25:13;100765.47;;;9.41;100.00
7200;BME280;3641;49.082;8.200;2024-02-15T05:27:41;100762.59;;;9.43;100.00
7200;BME280;3641;49.082;8.200;2024-02-15T05:30:09;100765.31;;;9.43;100.00
7200;BME280;3641;49.082;8.200;2024-02-15T05:32:36;100766.00;;;9.53;100.00
7200;BME280;3641;49.082;8.200;2024-02-15T05:35:10;100767.88;;;9.44;100.00
7200;BME280;3641;49.082;8.200;2024-02-15T05:37:36;100768.53;;;9.38;100.00
7200;BME280;3641;49.082;8.200;2024-02-15T05:40:03;100759.47;;;9.38;100.00
7200;BME280;3641;49.082;8.200;2024-02-15T05:42:30;100767.00;;;9.44;100.00
7200;BME280;3641;49.082;8.200;2024-02-15T05:45:26;100766.16;;;9.52;100.00
7200;BME280;3641;49.082;8.200;2024-02-15T05:47:55;100768.19;;;9.41;100.00
7200;BME280;3641;49.082;8.200;2024-02-15T05:50:23;100767.16;;;9.51;100.00
7200;BME280;3641;49.082;8.200;2024-02-15T05:52:49;100764.44;;;9.42;100.00
7200;BME280;3641;49.082;8.200;2024-02-15T05:55:18;100768.47;;;9.22;100.00
7200;BME280;3641;49.082;8.200;2024-02-15T05:57:45;100755.88;;;9.21;100.00
7200;BME280;3641;49.082;8.200;2024-02-15T06:00:13;100753.00;;;9.22;100.00
7200;BME280;3641;49.082;8.200;2024-02-15T06:02:40;100742.75;;;9.16;100.00
7200;BME280;3641;49.082;8.200;2024-02-15T06:05:07;100738.50;;;9.30;100.00
7200;BME280;3641;49.082;8.200;2024-02-15T06:07:36;100742.44;;;9.19;100.00
7200;BME280;3641;49.082;8.200;2024-02-15T06:10:03;100739.00;;;9.17;100.00
7200;BME280;3641;49.082;8.200;2024-02-15T06:12:32;100721.63;;;9.10;100.00
7200;BME280;3641;49.082;8.200;2024-02-15T06:14:59;100729.50;;;9.21;100.00
7200;BME280;3641;49.082;8.200;2024-02-15T06:17:25;100723.19;;;9.21;100.00
7200;BME280;3641;49.082;8.200;2024-02-15T06:19:52;100721.63;;;9.10;100.00
7200;BME280;3641;49.082;8.200;2024-02-15T06:22:19;100718.41;;;9.06;100.00
7200;BME280;3641;49.082;8.200;2024-02-15T06:24:47;100709.03;;;9.09;100.00
7200;BME280;3641;49.082;8.200;2024-02-15T06:27:13;100716.19;;;9.18;100.00
7200;BME280;3641;49.082;8.200;2024-02-15T06:29:41;100717.75;;;9.21;100.00
7200;BME280;3641;49.082;8.200;2024-02-15T06:32:25;100715.34;;;9.09;100.00
7200;BME280;3641;49.082;8.200;2024-02-15T06:35:09;100722.28;;;8.96;100.00
7200;BME280;3641;49.082;8.200;2024-02-15T06:37:53;100722.47;;;9.11;100.00
7200;BME280;3641;49.082;8.200;2024-02-15T06:40:38;100723.19;;;9.13;100.00
7200;BME280;3641;49.082;8.200;2024-02-15T06:43:05;100719.41;;;9.05;100.00
7200;BME280;3641;49.082;8.200;2024-02-15T06:45:33;100722.44;;;8.94;100.00
7200;BME280;3641;49.082;8.200;2024-02-15T06:48:02;100719.53;;;8.87;100.00
7200;BME280;3641;49.082;8.200;2024-02-15T06:50:29;100727.91;;;9.02;100.00
7200;BME280;3641;49.082;8.200;2024-02-15T06:52:55;100727.75;;;9.04;100.00
7200;BME280;3641;49.082;8.200;2024-02-15T06:55:22;100716.84;;;8.96;100.00
7200;BME280;3641;49.082;8.200;2024-02-15T06:57:50;100721.13;;;9.06;100.00
7200;BME280;3641;49.082;8.200;2024-02-15T07:00:17;100718.34;;;8.98;100.00
7200;BME280;3641;49.082;8.200;2024-02-15T07:02:44;100710.91;;;9.00;100.00
7200;BME280;3641;49.082;8.200;2024-02-15T07:05:10;100712.47;;;9.11;100.00
7200;BME280;3641;49.082;8.200;2024-02-15T07:07:37;100719.44;;;9.22;100.00
7200;BME280;3641;49.082;8.200;2024-02-15T07:10:05;100716.19;;;9.10;100.00
7200;BME280;3641;49.082;8.200;2024-02-15T07:12:31;100715.81;;;8.97;100.00
7200;BME280;3641;49.082;8.200;2024-02-15T07:14:59;100715.25;;;8.85;100.00
7200;BME280;3641;49.082;8.200;2024-02-15T07:17:28;100710.00;;;8.91;100.00
7200;BME280;3641;49.082;8.200;2024-02-15T07:19:55;100713.16;;;9.21;100.00
7200;BME280;3641;49.082;8.200;2024-02-15T07:22:21;100710.25;;;9.15;100.00
7200;BME280;3641;49.082;8.200;2024-02-15T07:24:48;100714.81;;;9.06;100.00
7200;BME280;3641;49.082;8.200;2024-02-15T07:27:14;100710.91;;;9.17;100.00
7200;BME280;3641;49.082;8.200;2024-02-15T07:29:41;100700.81;;;8.84;100.00
7200;BME280;3641;49.082;8.200;2024-02-15T07:32:09;100704.19;;;8.78;100.00
7200;BME280;3641;49.082;8.200;2024-02-15T07:34:37;100708.34;;;9.07;100.00
7200;BME280;3641;49.082;8.200;2024-02-15T07:37:03;100708.53;;;9.14;100.00
7200;BME280;3641;49.082;8.200;2024-02-15T07:39:30;100718.59;;;9.30;100.00
7200;BME280;3641;49.082;8.200;2024-02-15T07:41:57;100716.88;;;9.20;100.00
7200;BME280;3641;49.082;8.200;2024-02-15T07:44:24;100716.56;;;9.32;100.00
7200;BME280;3641;49.082;8.200;2024-02-15T07:46:52;100721.81;;;9.17;100.00
7200;BME280;3641;49.082;8.200;2024-02-15T07:49:20;100719.09;;;9.25;100.00
7200;BME280;3641;49.082;8.200;2024-02-15T07:51:47;100719.94;;;9.17;100.00
7200;BME280;3641;49.082;8.200;2024-02-15T07:54:18;100728.16;;;9.25;100.00
7200;BME280;3641;49.082;8.200;2024-02-15T07:56:46;100723.22;;;9.29;100.00
7200;BME280;3641;49.082;8.200;2024-02-15T07:59:12;100723.22;;;9.29;100.00
7200;BME280;3641;49.082;8.200;2024-02-15T08:01:40;100722.38;;;9.29;100.00
7200;BME280;3641;49.082;8.200;2024-02-15T08:04:06;100722.59;;;8.84;100.00
7200;BME280;3641;49.082;8.200;2024-02-15T08:06:34;100723.69;;;9.08;100.00
7200;BME280;3641;49.082;8.200;2024-02-15T08:09:03;100718.91;;;9.02;100.00
7200;BME280;3641;49.082;8.200;2024-02-15T08:11:30;100708.53;;;9.05;100.00
7200;BME280;3641;49.082;8.200;2024-02-15T08:13:57;100716.69;;;9.05;100.00
7200;BME280;3641;49.082;8.200;2024-02-15T08:16:25;100714.31;;;9.11;100.00
7200;BME280;3641;49.082;8.200;2024-02-15T08:18:52;100713.97;;;9.14;100.00
7200;BME280;3641;49.082;8.200;2024-02-15T08:21:25;100712.63;;;9.18;100.00
7200;BME280;3641;49.082;8.200;2024-02-15T08:23:53;100706.31;;;9.17;100.00
7200;BME280;3641;49.082;8.200;2024-02-15T08:26:20;100706.03;;;9.29;100.00
7200;BME280;3641;49.082;8.200;2024-02-15T08:28:47;100705.97;;;9.12;100.00
7200;BME280;3641;49.082;8.200;2024-02-15T08:31:13;100707.19;;;9.09;100.00
7200;BME280;3641;49.082;8.200;2024-02-15T08:33:40;100697.47;;;9.23;100.00
7200;BME280;3641;49.082;8.200;2024-02-15T08:36:08;100692.19;;;9.14;100.00
7200;BME280;3641;49.082;8.200;2024-02-15T08:38:35;100696.97;;;9.12;100.00
7200;BME280;3641;49.082;8.200;2024-02-15T08:41:03;100694.41;;;9.10;100.00
7200;BME280;3641;49.082;8.200;2024-02-15T08:43:32;100696.44;;;9.08;100.00
7200;BME280;3641;49.082;8.200;2024-02-15T08:45:58;100691.34;;;9.13;100.00
7200;BME280;3641;49.082;8.200;2024-02-15T08:48:26;100690.03;;;9.34;100.00
7200;BME280;3641;49.082;8.200;2024-02-15T08:50:52;100695.28;;;9.27;100.00
7200;BME280;3641;49.082;8.200;2024-02-15T08:53:19;100693.75;;;9.33;100.00
7200;BME280;3641;49.082;8.200;2024-02-15T08:55:47;100696.31;;;9.51;100.00
7200;BME280;3641;49.082;8.200;2024-02-15T08:58:15;100701.09;;;9.57;100.00
7200;BME280;3641;49.082;8.200;2024-02-15T09:00:41;100695.63;;;9.49;100.00
7200;BME280;3641;49.082;8.200;2024-02-15T09:03:10;100689.50;;;9.55;100.00
7200;BME280;3641;49.082;8.200;2024-02-15T09:05:36;100691.06;;;9.66;100.00
7200;BME280;3641;49.082;8.200;2024-02-15T09:08:03;100696.84;;;9.71;100.00
7200;BME280;3641;49.082;8.200;2024-02-15T09:10:30;100696.16;;;9.77;100.00
7200;BME280;3641;49.082;8.200;2024-02-15T09:12:57;100696.81;;;9.87;100.00
7200;BME280;3641;49.082;8.200;2024-02-15T09:15:25;100692.06;;;9.89;100.00
7200;BME280;3641;49.082;8.200;2024-02-15T09:17:51;100686.94;;;9.94;100.00
7200;BME280;3641;49.082;8.200;2024-02-15T09:20:19;100681.81;;;9.99;100.00
7200;BME280;3641;49.082;8.200;2024-02-15T09:22:48;100683.84;;;10.06;100.00
7200;BME280;3641;49.082;8.200;2024-02-15T09:25:14;100678.03;;;10.09;100.00
7200;BME280;3641;49.082;8.200;2024-02-15T09:27:41;100681.25;;;10.12;100.00
7200;BME280;3641;49.082;8.200;2024-02-15T09:30:09;100678.66;;;10.27;100.00
7200;BME280;3641;49.082;8.200;2024-02-15T09:32:38;100676.63;;;10.29;100.00
7200;BME280;3641;49.082;8.200;2024-02-15T09:35:07;100674.41;;;10.33;100.00
7200;BME280;3641;49.082;8.200;2024-02-15T09:37:33;100669.97;;;10.24;100.00
7200;BME280;3641;49.082;8.200;2024-02-15T09:39:59;100660.41;;;10.36;100.00
7200;BME280;3641;49.082;8.200;2024-02-15T09:42:30;100648.97;;;10.41;100.00
7200;BME280;3641;49.082;8.200;2024-02-15T09:44:56;100642.66;;;10.40;100.00
7200;BME280;3641;49.082;8.200;2024-02-15T09:47:23;100639.91;;;10.48;100.00
7200;BME280;3641;49.082;8.200;2024-02-15T09:49:52;100645.16;;;10.58;100.00
7200;BME280;3641;49.082;8.200;2024-02-15T09:52:19;100636.59;;;10.61;100.00
7200;BME280;3641;49.082;8.200;2024-02-15T09:54:46;100635.50;;;10.70;100.00
7200;BME280;3641;49.082;8.200;2024-02-15T09:57:13;100634.44;;;10.80;100.00
7200;BME280;3641;49.082;8.200;2024-02-15T09:59:39;100626.88;;;10.90;100.00
7200;BME280;3641;49.082;8.200;2024-02-15T10:02:07;100627.06;;;11.12;100.00
7200;BME280;3641;49.082;8.200;2024-02-15T10:04:36;100627.03;;;11.58;100.00
7200;BME280;3641;49.082;8.200;2024-02-15T10:07:05;100619.41;;;12.06;98.57
7200;BME280;3641;49.082;8.200;2024-02-15T10:09:34;100623.97;;;12.50;97.29
7200;BME280;3641;49.082;8.200;2024-02-15T10:12:03;100615.44;;;12.97;96.16
7200;BME280;3641;49.082;8.200;2024-02-15T10:14:32;100612.38;;;13.06;86.82
7200;BME280;3641;49.082;8.200;2024-02-15T10:17:05;100616.56;;;13.02;90.59
7200;BME280;3641;49.082;8.200;2024-02-15T10:19:32;100616.44;;;13.11;95.61
7200;BME280;3641;49.082;8.200;2024-02-15T10:22:07;100621.06;;;13.32;98.62
7200;BME280;3641;49.082;8.200;2024-02-15T10:24:34;100612.53;;;13.41;98.82
7200;BME280;3641;49.082;8.200;2024-02-15T10:27:03;100620.06;;;13.18;99.53
7200;BME280;3641;49.082;8.200;2024-02-15T10:29:32;100619.25;;;13.17;100.00
7200;BME280;3641;49.082;8.200;2024-02-15T10:32:00;100613.84;;;13.02;100.00
7200;BME280;3641;49.082;8.200;2024-02-15T10:34:27;100619.25;;;12.96;100.00
7200;BME280;3641;49.082;8.200;2024-02-15T10:36:56;100614.53;;;12.89;99.81
7200;BME280;3641;49.082;8.200;2024-02-15T10:39:37;100608.81;;;12.84;100.00
7200;BME280;3641;49.082;8.200;2024-02-15T10:42:06;100612.41;;;12.70;98.12
7200;BME280;3641;49.082;8.200;2024-02-15T10:44:36;100611.63;;;12.76;100.00
7200;BME280;3641;49.082;8.200;2024-02-15T10:47:04;100612.00;;;12.73;95.88
7200;BME280;3641;49.082;8.200;2024-02-15T10:49:33;100602.13;;;12.72;99.69
7200;BME280;3641;49.082;8.200;2024-02-15T10:52:01;100600.34;;;12.64;98.51
7200;BME280;3641;49.082;8.200;2024-02-15T10:54:46;100598.69;;;12.70;100.00
7200;BME280;3641;49.082;8.200;2024-02-15T10:57:14;100598.94;;;12.68;100.00
7200;BME280;3641;49.082;8.200;2024-02-15T10:59:54;100595.91;;;12.63;98.95
7200;BME280;3641;49.082;8.200;2024-02-15T11:02:26;100598.38;;;12.58;100.00
7200;BME280;3641;49.082;8.200;2024-02-15T11:04:55;100598.19;;;12.60;100.00
7200;BME280;3641;49.082;8.200;2024-02-15T11:07:28;100594.53;;;12.52;97.96
7200;BME280;3641;49.082;8.200;2024-02-15T11:09:57;100598.59;;;12.42;95.98
7200;BME280;3641;49.082;8.200;2024-02-15T11:12:24;100585.25;;;12.53;99.74
7200;BME280;3641;49.082;8.200;2024-02-15T11:14:52;100582.72;;;12.52;99.68
7200;BME280;3641;49.082;8.200;2024-02-15T11:17:47;100578.09;;;12.52;100.00
7200;BME280;3641;49.082;8.200;2024-02-15T11:20:47;100566.22;;;12.45;97.31
7200;BME280;3641;49.082;8.200;2024-02-15T11:23:27;100570.72;;;12.53;99.85
7200;BME280;3641;49.082;8.200;2024-02-15T11:25:55;100565.25;;;12.53;99.32
7200;BME280;3641;49.082;8.200;2024-02-15T11:28:43;100559.78;;;12.53;100.00
7200;BME280;3641;49.082;8.200;2024-02-15T11:34:41;100549.66;;;12.53;92.74
7200;BME280;3641;49.082;8.200;2024-02-15T11:37:08;100547.97;;;12.52;98.02
7200;BME280;3641;49.082;8.200;2024-02-15T11:39:40;100540.88;;;12.58;100.00
7200;BME280;3641;49.082;8.200;2024-02-15T11:42:29;100534.28;;;12.52;97.51
7200;BME280;3641;49.082;8.200;2024-02-15T11:45:05;100526.97;;;12.60;97.31
7200;BME280;3641;49.082;8.200;2024-02-15T11:47:36;100531.03;;;12.64;97.13
7200;BME280;3641;49.082;8.200;2024-02-15T11:50:05;100518.63;;;12.68;97.03
7200;BME280;3641;49.082;8.200;2024-02-15T11:52:31;100516.44;;;12.78;98.49
7200;BME280;3641;49.082;8.200;2024-02-15T11:55:04;100515.50;;;12.71;97.93
7200;BME280;3641;49.082;8.200;2024-02-15T11:57:36;100513.50;;;12.80;95.13
7200;BME280;3641;49.082;8.200;2024-02-15T12:00:20;100514.91;;;12.76;94.89
7200;BME280;3641;49.082;8.200;2024-02-15T12:03:00;100516.34;;;12.71;96.33
7200;BME280;3641;49.082;8.200;2024-02-15T12:05:44;100508.28;;;12.85;91.85
7200;BME280;3641;49.082;8.200;2024-02-15T12:08:28;100511.66;;;12.87;94.57
7200;BME280;3641;49.082;8.200;2024-02-15T12:11:13;100509.69;;;12.81;94.87
7200;BME280;3641;49.082;8.200;2024-02-15T12:13:59;100505.91;;;12.82;95.92
7200;BME280;3641;49.082;8.200;2024-02-15T12:16:43;100508.47;;;12.83;97.83
7200;BME280;3641;49.082;8.200;2024-02-15T12:19:27;100507.34;;;12.78;96.99
7200;BME280;3641;49.082;8.200;2024-02-15T12:21:54;100506.19;;;12.87;93.51
7200;BME280;3641;49.082;8.200;2024-02-15T12:24:22;100498.41;;;12.90;97.77
7200;BME280;3641;49.082;8.200;2024-02-15T12:26:52;100495.84;;;12.89;96.45
7200;BME280;3641;49.082;8.200;2024-02-15T12:29:20;100488.44;;;12.83;95.48
7200;BME280;3641;49.082;8.200;2024-02-15T12:31:46;100476.63;;;12.82;95.96
7200;BME280;3641;49.082;8.200;2024-02-15T12:34:14;100474.94;;;12.81;95.55
7200;BME280;3641;49.082;8.200;2024-02-15T12:36:41;100473.31;;;12.87;98.35
7200;BME280;3641;49.082;8.200;2024-02-15T12:39:08;100461.91;;;12.83;96.44
7200;BME280;3641;49.082;8.200;2024-02-15T12:41:39;100463.06;;;12.96;95.27
7200;BME280;3641;49.082;8.200;2024-02-15T12:44:06;100466.59;;;12.89;93.11
7200;BME280;3641;49.082;8.200;2024-02-15T12:46:36;100461.16;;;12.96;90.83
7200;BME280;3641;49.082;8.200;2024-02-15T12:49:10;100463.09;;;13.02;95.20
7200;BME280;3641;49.082;8.200;2024-02-15T12:51:39;100454.66;;;12.97;93.56
7200;BME280;3641;49.082;8.200;2024-02-15T12:54:09;100452.75;;;12.98;93.50
7200;BME280;3641;49.082;8.200;2024-02-15T12:56:36;100455.97;;;13.08;86.46
7200;BME280;3641;49.082;8.200;2024-02-15T12:59:02;100446.28;;;13.05;91.31
7200;BME280;3641;49.082;8.200;2024-02-15T13:01:29;100436.97;;;13.06;89.81
7200;BME280;3641;49.082;8.200;2024-02-15T13:03:57;100435.50;;;13.04;94.92
7200;BME280;3641;49.082;8.200;2024-02-15T13:06:23;100438.25;;;13.04;95.23
7200;BME280;3641;49.082;8.200;2024-02-15T13:08:50;100429.13;;;12.97;93.38
7200;BME280;3641;49.082;8.200;2024-02-15T13:11:17;100423.38;;;12.92;92.15
7200;BME280;3641;49.082;8.200;2024-02-15T13:13:43;100417.28;;;12.89;88.36
7200;BME280;3641;49.082;8.200;2024-02-15T13:16:10;100410.66;;;13.05;93.82
7200;BME280;3641;49.082;8.200;2024-02-15T13:18:36;100415.00;;;13.00;91.90
7200;BME280;3641;49.082;8.200;2024-02-15T13:21:04;100410.59;;;12.99;93.72